sensor_id;sensor_type;location;lat;lon;timestamp;P1;durP1;ratioP1;P2;durP2;ratioP2
29218;SDS011;16421;50.202;7.852;2023-12-04T00:08:57;10.35;;;5.60;;
29218;SDS011;16421;50.202;7.852;2023-12-04T00:14:02;9.73;;;6.22;;
29218;SDS011;16421;50.202;7.852;2023-12-04T00:19:05;10.40;;;6.03;;
29218;SDS011;16421;50.202;7.852;2023-12-04T00:24:08;11.85;;;6.32;;
29218;SDS011;16421;50.202;7.852;2023-12-04T00:29:13;11.32;;;6.40;;
29218;SDS011;16421;50.202;7.852;2023-12-04T00:34:16;11.13;;;6.97;;
29218;SDS011;16421;50.202;7.852;2023-12-04T00:39:19;12.80;;;7.53;;
29218;SDS011;16421;50.202;7.852;2023-12-04T00:44:24;8.82;;;5.65;;
29218;SDS011;16421;50.202;7.852;2023-12-04T00:49:27;10.60;;;6.65;;
29218;SDS011;16421;50.202;7.852;2023-12-04T00:54:31;11.90;;;6.82;;
29218;SDS011;16421;50.202;7.852;2023-12-04T00:59:35;10.88;;;6.50;;
29218;SDS011;16421;50.202;7.852;2023-12-04T01:04:39;10.82;;;7.20;;
29218;SDS011;16421;50.202;7.852;2023-12-04T01:09:43;13.18;;;7.70;;
29218;SDS011;16421;50.202;7.852;2023-12-04T01:14:47;10.50;;;6.80;;
29218;SDS011;16421;50.202;7.852;2023-12-04T01:19:51;11.10;;;6.13;;
29218;SDS011;16421;50.202;7.852;2023-12-04T01:24:54;8.38;;;5.93;;
29218;SDS011;16421;50.202;7.852;2023-12-04T01:29:59;9.25;;;5.68;;
29218;SDS011;16421;50.202;7.852;2023-12-04T01:35:02;7.60;;;5.18;;
29218;SDS011;16421;50.202;7.852;2023-12-04T01:40:06;9.52;;;5.97;;
29218;SDS011;16421;50.202;7.852;2023-12-04T01:45:12;10.45;;;6.35;;
29218;SDS011;16421;50.202;7.852;2023-12-04T01:50:15;8.98;;;5.53;;
29218;SDS011;16421;50.202;7.852;2023-12-04T01:55:19;9.00;;;6.00;;
29218;SDS011;16421;50.202;7.852;2023-12-04T02:00:24;9.88;;;6.45;;
29218;SDS011;16421;50.202;7.852;2023-12-04T02:05:28;10.87;;;6.03;;
29218;SDS011;16421;50.202;7.852;2023-12-04T02:10:33;12.20;;;6.93;;
29218;SDS011;16421;50.202;7.852;2023-12-04T02:15:38;13.65;;;6.47;;
29218;SDS011;16421;50.202;7.852;2023-12-04T02:20:41;8.73;;;5.53;;
29218;SDS011;16421;50.202;7.852;2023-12-04T02:25:46;10.35;;;6.18;;
29218;SDS011;16421;50.202;7.852;2023-12-04T02:30:49;9.82;;;6.13;;
29218;SDS011;16421;50.202;7.852;2023-12-04T02:35:53;11.48;;;6.68;;
29218;SDS011;16421;50.202;7.852;2023-12-04T02:46:21;11.38;;;6.75;;
29218;SDS011;16421;50.202;7.852;2023-12-04T02:51:24;10.02;;;6.45;;
29218;SDS011;16421;50.202;7.852;2023-12-04T02:56:29;9.55;;;6.07;;
29218;SDS011;16421;50.202;7.852;2023-12-04T03:01:32;10.07;;;6.68;;
29218;SDS011;16421;50.202;7.852;2023-12-04T03:06:35;12.80;;;7.55;;
29218;SDS011;16421;50.202;7.852;2023-12-04T03:11:40;13.18;;;8.07;;
29218;SDS011;16421;50.202;7.852;2023-12-04T03:16:44;12.10;;;7.68;;
29218;SDS011;16421;50.202;7.852;2023-12-04T03:21:47;12.38;;;7.28;;
29218;SDS011;16421;50.202;7.852;2023-12-04T03:26:51;11.32;;;6.80;;
29218;SDS011;16421;50.202;7.852;2023-12-04T03:31:55;12.45;;;6.90;;
29218;SDS011;16421;50.202;7.852;2023-12-04T03:36:58;12.15;;;6.65;;
29218;SDS011;16421;50.202;7.852;2023-12-04T03:42:02;10.57;;;6.28;;
29218;SDS011;16421;50.202;7.852;2023-12-04T03:47:06;10.97;;;6.50;;
29218;SDS011;16421;50.202;7.852;2023-12-04T03:52:09;10.95;;;6.85;;
29218;SDS011;16421;50.202;7.852;2023-12-04T03:57:14;10.40;;;6.40;;
29218;SDS011;16421;50.202;7.852;2023-12-04T04:02:17;10.02;;;5.55;;
29218;SDS011;16421;50.202;7.852;2023-12-04T04:07:20;10.00;;;6.30;;
29218;SDS011;16421;50.202;7.852;2023-12-04T04:12:25;11.10;;;6.93;;
29218;SDS011;16421;50.202;7.852;2023-12-04T04:17:29;9.45;;;5.65;;
29218;SDS011;16421;50.202;7.852;2023-12-04T04:22:33;10.98;;;6.43;;
29218;SDS011;16421;50.202;7.852;2023-12-04T04:27:40;11.00;;;5.73;;
29218;SDS011;16421;50.202;7.852;2023-12-04T04:32:43;9.30;;;5.85;;
29218;SDS011;16421;50.202;7.852;2023-12-04T04:37:47;10.23;;;5.88;;
29218;SDS011;16421;50.202;7.852;2023-12-04T04:42:52;10.55;;;6.22;;
29218;SDS011;16421;50.202;7.852;2023-12-04T04:47:55;12.38;;;6.30;;
29218;SDS011;16421;50.202;7.852;2023-12-04T04:52:59;9.98;;;5.78;;
29218;SDS011;16421;50.202;7.852;2023-12-04T04:58:03;11.57;;;6.60;;
29218;SDS011;16421;50.202;7.852;2023-12-04T05:03:06;12.57;;;7.13;;
29218;SDS011;16421;50.202;7.852;2023-12-04T05:08:10;10.80;;;6.70;;
29218;SDS011;16421;50.202;7.852;2023-12-04T05:13:14;8.60;;;6.03;;
29218;SDS011;16421;50.202;7.852;2023-12-04T05:18:18;9.20;;;5.60;;
29218;SDS011;16421;50.202;7.852;2023-12-04T05:23:21;8.70;;;5.32;;
29218;SDS011;16421;50.202;7.852;2023-12-04T05:28:26;9.07;;;5.35;;
29218;SDS011;16421;50.202;7.852;2023-12-04T05:33:29;7.55;;;4.88;;
29218;SDS011;16421;50.202;7.852;2023-12-04T05:38:32;8.40;;;5.05;;
29218;SDS011;16421;50.202;7.852;2023-12-04T05:43:37;9.82;;;5.97;;
29218;SDS011;16421;50.202;7.852;2023-12-04T05:48:40;8.48;;;5.75;;
29218;SDS011;16421;50.202;7.852;2023-12-04T05:53:43;7.63;;;4.88;;
29218;SDS011;16421;50.202;7.852;2023-12-04T05:58:48;5.65;;;4.25;;
29218;SDS011;16421;50.202;7.852;2023-12-04T06:03:51;7.00;;;4.28;;
29218;SDS011;16421;50.202;7.852;2023-12-04T06:08:54;6.60;;;4.03;;
29218;SDS011;16421;50.202;7.852;2023-12-04T06:13:59;7.75;;;4.85;;
29218;SDS011;16421;50.202;7.852;2023-12-04T06:19:02;7.60;;;5.28;;
29218;SDS011;16421;50.202;7.852;2023-12-04T06:24:06;8.43;;;5.88;;
29218;SDS011;16421;50.202;7.852;2023-12-04T06:29:12;6.35;;;4.43;;
29218;SDS011;16421;50.202;7.852;2023-12-04T06:34:16;6.82;;;4.45;;
29218;SDS011;16421;50.202;7.852;2023-12-04T06:39:19;6.40;;;3.92;;
29218;SDS011;16421;50.202;7.852;2023-12-04T06:44:25;7.63;;;4.45;;
29218;SDS011;16421;50.202;7.852;2023-12-04T06:49:29;9.95;;;6.20;;
29218;SDS011;16421;50.202;7.852;2023-12-04T06:54:34;9.55;;;5.72;;
29218;SDS011;16421;50.202;7.852;2023-12-04T06:59:39;6.65;;;4.72;;
29218;SDS011;16421;50.202;7.852;2023-12-04T07:04:42;9.15;;;6.45;;
29218;SDS011;16421;50.202;7.852;2023-12-04T07:09:45;9.25;;;5.70;;
29218;SDS011;16421;50.202;7.852;2023-12-04T07:14:50;11.07;;;6.72;;
29218;SDS011;16421;50.202;7.852;2023-12-04T07:19:53;13.55;;;8.05;;
29218;SDS011;16421;50.202;7.852;2023-12-04T07:24:57;10.10;;;5.97;;
29218;SDS011;16421;50.202;7.852;2023-12-04T07:30:02;7.55;;;4.95;;
29218;SDS011;16421;50.202;7.852;2023-12-04T07:35:06;7.38;;;4.55;;
29218;SDS011;16421;50.202;7.852;2023-12-04T07:40:10;5.47;;;3.65;;
29218;SDS011;16421;50.202;7.852;2023-12-04T07:45:15;6.95;;;4.70;;
29218;SDS011;16421;50.202;7.852;2023-12-04T07:50:19;5.90;;;3.70;;
29218;SDS011;16421;50.202;7.852;2023-12-04T07:55:22;6.72;;;3.92;;
29218;SDS011;16421;50.202;7.852;2023-12-04T08:00:27;5.60;;;3.58;;
29218;SDS011;16421;50.202;7.852;2023-12-04T08:05:30;7.28;;;4.20;;
29218;SDS011;16421;50.202;7.852;2023-12-04T08:10:33;11.60;;;7.93;;
29218;SDS011;16421;50.202;7.852;2023-12-04T08:15:38;10.80;;;7.05;;
29218;SDS011;16421;50.202;7.852;2023-12-04T08:20:41;13.15;;;7.75;;
29218;SDS011;16421;50.202;7.852;2023-12-04T08:25:45;9.93;;;6.35;;
29218;SDS011;16421;50.202;7.852;2023-12-04T08:30:49;9.45;;;6.55;;
29218;SDS011;16421;50.202;7.852;2023-12-04T08:35:53;11.70;;;7.47;;
29218;SDS011;16421;50.202;7.852;2023-12-04T08:40:56;9.65;;;6.13;;
29218;SDS011;16421;50.202;7.852;2023-12-04T08:46:01;11.80;;;5.65;;
29218;SDS011;16421;50.202;7.852;2023-12-04T08:51:04;9.32;;;5.25;;
29218;SDS011;16421;50.202;7.852;2023-12-04T08:56:09;9.00;;;6.07;;
29218;SDS011;16421;50.202;7.852;2023-12-04T09:01:16;7.17;;;5.17;;
29218;SDS011;16421;50.202;7.852;2023-12-04T09:06:19;8.07;;;4.75;;
29218;SDS011;16421;50.202;7.852;2023-12-04T09:11:33;10.90;;;5.22;;
29218;SDS011;16421;50.202;7.852;2023-12-04T09:16:37;10.25;;;6.18;;
29218;SDS011;16421;50.202;7.852;2023-12-04T09:21:40;8.82;;;5.10;;
29218;SDS011;16421;50.202;7.852;2023-12-04T09:26:45;9.95;;;5.78;;
29218;SDS011;16421;50.202;7.852;2023-12-04T09:31:50;10.15;;;6.80;;
29218;SDS011;16421;50.202;7.852;2023-12-04T09:36:53;11.07;;;7.25;;
29218;SDS011;16421;50.202;7.852;2023-12-04T09:42:00;10.60;;;6.72;;
29218;SDS011;16421;50.202;7.852;2023-12-04T09:47:06;10.95;;;6.25;;
29218;SDS011;16421;50.202;7.852;2023-12-04T09:52:11;9.43;;;5.90;;
29218;SDS011;16421;50.202;7.852;2023-12-04T09:57:14;8.63;;;5.40;;
29218;SDS011;16421;50.202;7.852;2023-12-04T10:02:20;8.07;;;5.28;;
29218;SDS011;16421;50.202;7.852;2023-12-04T10:07:23;8.95;;;5.90;;
29218;SDS011;16421;50.202;7.852;2023-12-04T10:12:29;9.23;;;5.90;;
29218;SDS011;16421;50.202;7.852;2023-12-04T10:17:36;8.93;;;6.25;;
29218;SDS011;16421;50.202;7.852;2023-12-04T10:22:42;9.20;;;5.50;;
29218;SDS011;16421;50.202;7.852;2023-12-04T10:27:55;10.77;;;6.53;;
29218;SDS011;16421;50.202;7.852;2023-12-04T10:33:13;7.43;;;4.68;;
29218;SDS011;16421;50.202;7.852;2023-12-04T10:38:16;6.70;;;4.28;;
29218;SDS011;16421;50.202;7.852;2023-12-04T10:43:21;10.25;;;6.82;;
29218;SDS011;16421;50.202;7.852;2023-12-04T10:48:26;11.63;;;7.38;;
29218;SDS011;16421;50.202;7.852;2023-12-04T10:53:30;7.93;;;5.28;;
29218;SDS011;16421;50.202;7.852;2023-12-04T10:58:34;9.23;;;5.78;;
29218;SDS011;16421;50.202;7.852;2023-12-04T11:03:43;10.38;;;6.75;;
29218;SDS011;16421;50.202;7.852;2023-12-04T11:08:50;8.95;;;6.22;;
29218;SDS011;16421;50.202;7.852;2023-12-04T11:14:00;12.50;;;6.63;;
29218;SDS011;16421;50.202;7.852;2023-12-04T11:19:12;11.50;;;6.65;;
29218;SDS011;16421;50.202;7.852;2023-12-04T11:24:20;11.63;;;7.37;;
29218;SDS011;16421;50.202;7.852;2023-12-04T11:29:24;10.35;;;6.43;;
29218;SDS011;16421;50.202;7.852;2023-12-04T11:34:30;12.63;;;8.23;;
29218;SDS011;16421;50.202;7.852;2023-12-04T11:39:34;12.35;;;7.50;;
29218;SDS011;16421;50.202;7.852;2023-12-04T11:44:40;9.38;;;6.43;;
29218;SDS011;16421;50.202;7.852;2023-12-04T11:49:45;11.27;;;7.10;;
29218;SDS011;16421;50.202;7.852;2023-12-04T11:54:58;8.77;;;5.82;;
29218;SDS011;16421;50.202;7.852;2023-12-04T12:00:12;10.45;;;6.40;;
29218;SDS011;16421;50.202;7.852;2023-12-04T12:05:23;10.20;;;6.57;;
29218;SDS011;16421;50.202;7.852;2023-12-04T12:10:26;10.77;;;6.68;;
29218;SDS011;16421;50.202;7.852;2023-12-04T12:15:31;11.32;;;6.40;;
29218;SDS011;16421;50.202;7.852;2023-12-04T12:20:37;12.87;;;6.63;;
29218;SDS011;16421;50.202;7.852;2023-12-04T12:25:40;12.90;;;7.65;;
29218;SDS011;16421;50.202;7.852;2023-12-04T12:30:44;10.95;;;7.28;;
29218;SDS011;16421;50.202;7.852;2023-12-04T12:35:49;9.13;;;5.90;;
29218;SDS011;16421;50.202;7.852;2023-12-04T12:40:54;11.25;;;7.18;;
29218;SDS011;16421;50.202;7.852;2023-12-04T12:45:57;11.60;;;7.60;;
29218;SDS011;16421;50.202;7.852;2023-12-04T12:51:03;13.10;;;7.35;;
29218;SDS011;16421;50.202;7.852;2023-12-04T12:56:08;13.40;;;7.68;;
29218;SDS011;16421;50.202;7.852;2023-12-04T13:01:13;10.23;;;6.40;;
29218;SDS011;16421;50.202;7.852;2023-12-04T13:06:17;11.02;;;6.75;;
29218;SDS011;16421;50.202;7.852;2023-12-04T13:11:21;12.10;;;7.78;;
29218;SDS011;16421;50.202;7.852;2023-12-04T13:16:24;9.30;;;5.90;;
29218;SDS011;16421;50.202;7.852;2023-12-04T13:21:28;8.45;;;6.13;;
29218;SDS011;16421;50.202;7.852;2023-12-04T13:26:33;9.68;;;6.10;;
29218;SDS011;16421;50.202;7.852;2023-12-04T13:31:36;7.72;;;5.53;;
29218;SDS011;16421;50.202;7.852;2023-12-04T13:36:41;7.97;;;5.65;;
29218;SDS011;16421;50.202;7.852;2023-12-04T13:41:44;10.93;;;6.03;;
29218;SDS011;16421;50.202;7.852;2023-12-04T13:47:06;7.80;;;5.20;;
29218;SDS011;16421;50.202;7.852;2023-12-04T13:52:11;7.43;;;5.00;;
29218;SDS011;16421;50.202;7.852;2023-12-04T13:57:14;8.18;;;5.95;;
29218;SDS011;16421;50.202;7.852;2023-12-04T14:02:22;8.63;;;5.85;;
29218;SDS011;16421;50.202;7.852;2023-12-04T14:07:26;9.25;;;6.00;;
29218;SDS011;16421;50.202;7.852;2023-12-04T14:12:30;8.10;;;6.00;;
29218;SDS011;16421;50.202;7.852;2023-12-04T14:17:33;6.97;;;4.72;;
29218;SDS011;16421;50.202;7.852;2023-12-04T14:22:38;7.53;;;5.30;;
29218;SDS011;16421;50.202;7.852;2023-12-04T14:27:43;9.98;;;6.75;;
29218;SDS011;16421;50.202;7.852;2023-12-04T14:32:46;7.70;;;5.40;;
29218;SDS011;16421;50.202;7.852;2023-12-04T14:37:51;8.50;;;5.88;;
29218;SDS011;16421;50.202;7.852;2023-12-04T14:42:54;7.93;;;5.22;;
29218;SDS011;16421;50.202;7.852;2023-12-04T14:47:57;7.03;;;4.70;;
29218;SDS011;16421;50.202;7.852;2023-12-04T14:53:02;8.10;;;5.40;;
29218;SDS011;16421;50.202;7.852;2023-12-04T15:03:48;5.32;;;3.05;;
29218;SDS011;16421;50.202;7.852;2023-12-04T15:09:38;5.93;;;3.70;;
29218;SDS011;16421;50.202;7.852;2023-12-04T15:15:12;7.22;;;4.45;;
29218;SDS011;16421;50.202;7.852;2023-12-04T15:20:29;4.55;;;3.33;;
29218;SDS011;16421;50.202;7.852;2023-12-04T15:25:39;5.47;;;3.83;;
29218;SDS011;16421;50.202;7.852;2023-12-04T15:30:42;6.18;;;2.97;;
29218;SDS011;16421;50.202;7.852;2023-12-04T15:35:48;8.60;;;5.70;;
29218;SDS011;16421;50.202;7.852;2023-12-04T15:40:51;6.82;;;4.63;;
29218;SDS011;16421;50.202;7.852;2023-12-04T15:45:55;7.15;;;5.40;;
29218;SDS011;16421;50.202;7.852;2023-12-04T15:51:00;6.78;;;5.07;;
29218;SDS011;16421;50.202;7.852;2023-12-04T15:56:04;6.32;;;4.53;;
29218;SDS011;16421;50.202;7.852;2023-12-04T16:01:07;5.63;;;4.00;;
29218;SDS011;16421;50.202;7.852;2023-12-04T16:06:12;5.00;;;3.95;;
29218;SDS011;16421;50.202;7.852;2023-12-04T16:11:16;4.65;;;3.50;;
29218;SDS011;16421;50.202;7.852;2023-12-04T16:16:20;4.45;;;3.10;;
29218;SDS011;16421;50.202;7.852;2023-12-04T16:21:24;4.18;;;3.15;;
29218;SDS011;16421;50.202;7.852;2023-12-04T16:26:28;3.90;;;3.30;;
29218;SDS011;16421;50.202;7.852;2023-12-04T16:31:32;4.25;;;3.10;;
29218;SDS011;16421;50.202;7.852;2023-12-04T16:36:36;4.25;;;3.00;;
29218;SDS011;16421;50.202;7.852;2023-12-04T16:41:39;4.57;;;3.75;;
29218;SDS011;16421;50.202;7.852;2023-12-04T16:46:43;4.78;;;3.63;;
29218;SDS011;16421;50.202;7.852;2023-12-04T16:51:47;4.65;;;3.40;;
29218;SDS011;16421;50.202;7.852;2023-12-04T16:56:51;7.82;;;4.35;;
29218;SDS011;16421;50.202;7.852;2023-12-04T17:01:54;4.57;;;3.30;;
29218;SDS011;16421;50.202;7.852;2023-12-04T17:06:59;5.30;;;4.05;;
29218;SDS011;16421;50.202;7.852;2023-12-04T17:12:02;7.57;;;5.65;;
29218;SDS011;16421;50.202;7.852;2023-12-04T17:17:06;5.53;;;4.47;;
29218;SDS011;16421;50.202;7.852;2023-12-04T17:22:11;6.43;;;4.85;;
29218;SDS011;16421;50.202;7.852;2023-12-04T17:27:14;5.82;;;4.60;;
29218;SDS011;16421;50.202;7.852;2023-12-04T17:32:17;5.18;;;3.47;;
29218;SDS011;16421;50.202;7.852;2023-12-04T17:37:22;4.88;;;3.92;;
29218;SDS011;16421;50.202;7.852;2023-12-04T17:42:25;8.52;;;5.88;;
29218;SDS011;16421;50.202;7.852;2023-12-04T17:47:28;8.45;;;4.75;;
29218;SDS011;16421;50.202;7.852;2023-12-04T17:57:45;8.30;;;5.57;;
29218;SDS011;16421;50.202;7.852;2023-12-04T18:02:49;9.30;;;6.40;;
29218;SDS011;16421;50.202;7.852;2023-12-04T18:07:53;9.57;;;5.90;;
29218;SDS011;16421;50.202;7.852;2023-12-04T18:12:58;7.57;;;5.57;;
29218;SDS011;16421;50.202;7.852;2023-12-04T18:18:01;7.93;;;5.22;;
29218;SDS011;16421;50.202;7.852;2023-12-04T18:23:08;7.53;;;5.88;;
29218;SDS011;16421;50.202;7.852;2023-12-04T18:28:11;9.32;;;6.20;;
29218;SDS011;16421;50.202;7.852;2023-12-04T18:33:15;7.80;;;5.68;;
29218;SDS011;16421;50.202;7.852;2023-12-04T18:38:22;9.30;;;6.63;;
29218;SDS011;16421;50.202;7.852;2023-12-04T18:43:32;8.38;;;5.60;;
29218;SDS011;16421;50.202;7.852;2023-12-04T18:48:36;9.10;;;6.68;;
29218;SDS011;16421;50.202;7.852;2023-12-04T18:53:47;9.80;;;7.05;;
29218;SDS011;16421;50.202;7.852;2023-12-04T18:58:51;10.77;;;7.37;;
29218;SDS011;16421;50.202;7.852;2023-12-04T19:03:54;10.05;;;7.20;;
29218;SDS011;16421;50.202;7.852;2023-12-04T19:08:59;10.75;;;6.75;;
29218;SDS011;16421;50.202;7.852;2023-12-04T19:14:02;9.80;;;6.43;;
29218;SDS011;16421;50.202;7.852;2023-12-04T19:19:06;8.23;;;5.97;;
29218;SDS011;16421;50.202;7.852;2023-12-04T19:24:11;9.57;;;6.82;;
29218;SDS011;16421;50.202;7.852;2023-12-04T19:29:14;10.65;;;7.38;;
29218;SDS011;16421;50.202;7.852;2023-12-04T19:34:19;11.02;;;7.00;;
29218;SDS011;16421;50.202;7.852;2023-12-04T19:39:24;10.35;;;6.90;;
29218;SDS011;16421;50.202;7.852;2023-12-04T19:44:27;10.07;;;6.45;;
29218;SDS011;16421;50.202;7.852;2023-12-04T19:49:31;9.60;;;5.78;;
29218;SDS011;16421;50.202;7.852;2023-12-04T19:54:36;8.75;;;6.03;;
29218;SDS011;16421;50.202;7.852;2023-12-04T19:59:44;7.80;;;5.30;;
29218;SDS011;16421;50.202;7.852;2023-12-04T20:04:47;12.77;;;7.65;;
29218;SDS011;16421;50.202;7.852;2023-12-04T20:09:52;9.75;;;6.55;;
29218;SDS011;16421;50.202;7.852;2023-12-04T20:14:55;8.15;;;6.03;;
29218;SDS011;16421;50.202;7.852;2023-12-04T20:19:59;8.32;;;5.57;;
29218;SDS011;16421;50.202;7.852;2023-12-04T20:25:04;9.07;;;6.63;;
29218;SDS011;16421;50.202;7.852;2023-12-04T20:30:08;8.38;;;5.55;;
29218;SDS011;16421;50.202;7.852;2023-12-04T20:35:12;9.38;;;5.80;;
29218;SDS011;16421;50.202;7.852;2023-12-04T20:40:17;10.35;;;7.25;;
29218;SDS011;16421;50.202;7.852;2023-12-04T20:45:24;11.15;;;7.40;;
29218;SDS011;16421;50.202;7.852;2023-12-04T20:50:29;9.68;;;6.88;;
29218;SDS011;16421;50.202;7.852;2023-12-04T20:55:34;12.57;;;7.28;;
29218;SDS011;16421;50.202;7.852;2023-12-04T21:00:38;8.15;;;5.68;;
29218;SDS011;16421;50.202;7.852;2023-12-04T21:05:42;6.75;;;5.22;;
29218;SDS011;16421;50.202;7.852;2023-12-04T21:10:48;10.93;;;6.70;;
29218;SDS011;16421;50.202;7.852;2023-12-04T21:15:52;11.38;;;7.35;;
29218;SDS011;16421;50.202;7.852;2023-12-04T21:20:55;11.02;;;7.00;;
29218;SDS011;16421;50.202;7.852;2023-12-04T21:26:00;10.25;;;7.07;;
29218;SDS011;16421;50.202;7.852;2023-12-04T21:31:04;10.68;;;6.63;;
29218;SDS011;16421;50.202;7.852;2023-12-04T21:36:08;10.10;;;7.20;;
29218;SDS011;16421;50.202;7.852;2023-12-04T21:41:14;9.55;;;5.90;;
29218;SDS011;16421;50.202;7.852;2023-12-04T21:46:17;10.70;;;7.28;;
29218;SDS011;16421;50.202;7.852;2023-12-04T21:51:21;9.52;;;6.55;;
29218;SDS011;16421;50.202;7.852;2023-12-04T21:56:25;8.88;;;6.20;;
29218;SDS011;16421;50.202;7.852;2023-12-04T22:01:29;11.10;;;8.15;;
29218;SDS011;16421;50.202;7.852;2023-12-04T22:06:32;10.70;;;7.10;;
29218;SDS011;16421;50.202;7.852;2023-12-04T22:11:37;12.95;;;8.18;;
29218;SDS011;16421;50.202;7.852;2023-12-04T22:16:41;9.05;;;6.53;;
29218;SDS011;16421;50.202;7.852;2023-12-04T22:21:44;11.40;;;8.23;;
29218;SDS011;16421;50.202;7.852;2023-12-04T22:26:49;11.65;;;8.27;;
29218;SDS011;16421;50.202;7.852;2023-12-04T22:31:52;11.75;;;7.97;;
29218;SDS011;16421;50.202;7.852;2023-12-04T22:36:56;10.20;;;7.65;;
29218;SDS011;16421;50.202;7.852;2023-12-04T22:42:01;8.25;;;6.30;;
29218;SDS011;16421;50.202;7.852;2023-12-04T22:47:04;14.20;;;8.20;;
29218;SDS011;16421;50.202;7.852;2023-12-04T22:52:08;9.43;;;6.47;;
29218;SDS011;16421;50.202;7.852;2023-12-04T22:57:13;11.77;;;7.78;;
29218;SDS011;16421;50.202;7.852;2023-12-04T23:02:16;13.00;;;7.50;;
29218;SDS011;16421;50.202;7.852;2023-12-04T23:07:19;12.23;;;7.00;;
29218;SDS011;16421;50.202;7.852;2023-12-04T23:12:25;11.85;;;8.02;;
29218;SDS011;16421;50.202;7.852;2023-12-04T23:17:28;10.00;;;7.15;;
29218;SDS011;16421;50.202;7.852;2023-12-04T23:22:32;10.98;;;7.93;;
29218;SDS011;16421;50.202;7.852;2023-12-04T23:27:36;12.35;;;8.68;;
29218;SDS011;16421;50.202;7.852;2023-12-04T23:32:40;13.95;;;9.75;;
29218;SDS011;16421;50.202;7.852;2023-12-04T23:37:43;12.98;;;8.13;;
29218;SDS011;16421;50.202;7.852;2023-12-04T23:42:48;14.27;;;9.55;;
29218;SDS011;16421;50.202;7.852;2023-12-04T23:47:52;12.32;;;7.32;;
29218;SDS011;16421;50.202;7.852;2023-12-04T23:52:55;10.38;;;7.38;;
29218;SDS011;16421;50.202;7.852;2023-12-04T23:58:00;11.07;;;8.02;;
